Terminal Aerodrome Forecast
Issued by NWS Wilmington, OH

Home | Current Version | Previous Version | Text Only | Print | Product List | Glossary On
Versions: 1 2 3 4 5 6 7 8 9 10 11 12 13 14 15 16 17 18 19 20 21 22
000
FTUS41 KILN 271100
TAFILN
TAF
KILN 271133Z 2712/2812 31007KT P6SM BKN025
      TEMPO 2712/2714 5SM BR OVC006
     FM271600 30012G18KT P6SM BKN035
     FM272300 29012KT P6SM BKN035
     FM280200 29007KT P6SM BKN025=

USA.gov is the U.S. government's official web portal to all federal, state and local government web resources and services.